Time;durP1;ratioP1;P1;durP2;ratioP2;P2;SDS_P1;SDS_P2;PMS_P1;PMS_P2;Temp;Humidity;BMP_temperature;BMP_pressure;BME280_temperature;BME280_humidity;BME280_pressure;Samples;Min_cycle;Max_cycle;Signal;HPM_P1;HPM_P2
2022/10/12 00:01:14;;;;;;;17.97;12.30;;;;;;;16.68;69.15;98122.22;5030943;28;20303;-74
2022/10/12 00:03:40;;;;;;;15.73;11.80;;;;;;;16.70;69.02;98122.03;5032100;28;20208;-73
2022/10/12 00:06:09;;;;;;;14.23;11.50;;;;;;;16.65;69.33;98122.53;5033836;28;20647;-75
2022/10/12 00:08:36;;;;;;;17.03;12.70;;;;;;;16.67;69.07;98122.41;5031131;28;20224;-75
2022/10/12 00:11:02;;;;;;;18.23;12.10;;;;;;;16.68;68.92;98119.56;5032315;28;20418;-75
2022/10/12 00:13:27;;;;;;;26.73;12.40;;;;;;;16.71;68.95;98126.34;5032234;28;20446;-75
2022/10/12 00:15:53;;;;;;;15.83;11.43;;;;;;;16.66;68.71;98118.91;5032804;28;20885;-73
2022/10/12 00:18:18;;;;;;;15.97;11.43;;;;;;;16.61;68.91;98121.25;5031491;28;20195;-74
2022/10/12 00:20:44;;;;;;;18.87;12.93;;;;;;;16.60;68.92;98122.25;5036805;28;20214;-75
2022/10/12 00:23:09;;;;;;;22.43;12.40;;;;;;;16.57;68.91;98117.28;5034390;28;20286;-74
2022/10/12 00:25:38;;;;;;;19.37;12.50;;;;;;;16.51;68.84;98116.13;4998481;28;20191;-75
2022/10/12 00:28:05;;;;;;;18.20;11.63;;;;;;;16.50;69.11;98117.13;5022129;28;20274;-74
2022/10/12 00:30:30;;;;;;;29.50;12.97;;;;;;;16.52;69.08;98119.59;5018805;28;20480;-74
2022/10/12 00:32:56;;;;;;;21.00;11.63;;;;;;;16.50;69.04;98119.78;5018217;28;20969;-74
2022/10/12 00:35:22;;;;;;;19.57;12.03;;;;;;;16.49;68.90;98114.66;5031957;28;20195;-74
2022/10/12 00:37:53;;;;;;;18.83;12.70;;;;;;;16.48;68.85;98116.47;5029916;28;20499;-74
2022/10/12 00:40:19;;;;;;;18.90;12.30;;;;;;;16.45;68.93;98111.50;5029825;28;20489;-73
2022/10/12 00:42:44;;;;;;;19.87;12.70;;;;;;;16.43;68.78;98109.03;5032030;28;20474;-75
2022/10/12 00:45:09;;;;;;;26.73;13.30;;;;;;;16.45;69.00;98115.97;5032190;28;20184;-74
2022/10/12 00:47:37;;;;;;;18.57;11.97;;;;;;;16.46;68.92;98113.16;5031527;28;20283;-74
2022/10/12 00:50:09;;;;;;;18.67;12.40;;;;;;;16.48;68.61;98111.16;5031010;28;20211;-73
2022/10/12 00:52:43;;;;;;;17.43;12.50;;;;;;;16.45;68.57;98102.75;5023973;28;20427;-74
2022/10/12 00:55:12;;;;;;;16.70;11.70;;;;;;;16.43;68.82;98111.66;5031671;28;20518;-74
2022/10/12 00:57:37;;;;;;;29.23;12.40;;;;;;;16.41;68.61;98111.00;5030629;28;20434;-75
2022/10/12 01:00:06;;;;;;;27.77;13.67;;;;;;;16.39;68.60;98112.19;5030102;28;20459;-73
2022/10/12 01:02:33;;;;;;;21.93;12.00;;;;;;;16.37;68.74;98114.16;5024162;28;20180;-74
2022/10/12 01:04:59;;;;;;;27.00;13.03;;;;;;;16.31;68.74;98115.66;5030698;28;20431;-74
2022/10/12 01:07:25;;;;;;;15.37;12.17;;;;;;;16.31;68.65;98115.66;5029499;28;20426;-74
2022/10/12 01:09:51;;;;;;;20.63;12.70;;;;;;;16.28;68.53;98115.97;5029188;28;20415;-74
2022/10/12 01:12:17;;;;;;;18.93;12.17;;;;;;;16.26;68.67;98113.50;5030308;28;20187;-74
2022/10/12 01:14:42;;;;;;;21.10;11.83;;;;;;;16.27;68.59;98115.16;5029906;28;20426;-73
2022/10/12 01:17:22;;;;;;;19.30;12.70;;;;;;;16.27;68.32;98119.63;5030387;28;20430;-74
2022/10/12 01:20:09;;;;;;;16.40;11.60;;;;;;;16.23;68.29;98118.31;5030298;28;20215;-74
2022/10/12 01:22:42;;;;;;;17.20;12.30;;;;;;;16.21;68.18;98117.66;5030278;28;20426;-75
2022/10/12 01:25:22;;;;;;;30.50;12.67;;;;;;;16.20;68.24;98118.66;5031302;28;20434;-73
2022/10/12 01:27:54;;;;;;;18.83;12.20;;;;;;;16.18;68.31;98120.63;5030695;28;20453;-74
2022/10/12 01:30:24;;;;;;;16.00;11.90;;;;;;;16.16;68.34;98117.31;5031272;28;20784;-74
2022/10/12 01:33:09;;;;;;;20.67;12.60;;;;;;;16.12;68.48;98117.66;5035649;28;20458;-75
2022/10/12 01:35:45;;;;;;;19.27;13.13;;;;;;;16.12;68.45;98112.38;5023724;28;20484;-75
2022/10/12 01:38:28;;;;;;;14.07;11.30;;;;;;;16.11;68.10;98110.72;5029096;28;20422;-74
2022/10/12 01:41:15;;;;;;;16.57;12.07;;;;;;;16.09;68.03;98114.50;5035470;28;20453;-74
2022/10/12 01:43:42;;;;;;;15.73;11.53;;;;;;;16.03;68.06;98112.53;5025017;28;20525;-74
2022/10/12 01:46:19;;;;;;;17.03;11.90;;;;;;;16.01;68.14;98114.50;5030836;28;20562;-73
2022/10/12 01:48:50;;;;;;;32.93;13.23;;;;;;;15.90;68.13;98111.22;5031075;28;21043;-73
2022/10/12 01:51:22;;;;;;;27.57;12.67;;;;;;;15.92;68.25;98108.38;5029673;28;20914;-74
2022/10/12 01:54:10;;;;;;;24.20;13.40;;;;;;;15.90;68.14;98107.72;5029916;28;20503;-74
2022/10/12 01:56:47;;;;;;;21.10;13.53;;;;;;;15.84;68.30;98108.38;5022849;28;20422;-75
2022/10/12 01:59:19;;;;;;;27.57;16.00;;;;;;;15.83;68.03;98102.22;5029590;28;20456;-75
2022/10/12 02:02:06;;;;;;;30.17;15.80;;;;;;;15.84;68.33;98106.53;5029504;28;20516;-75
2022/10/12 02:04:59;;;;;;;27.60;14.87;;;;;;;15.85;68.47;98102.13;5028179;28;20470;-75
2022/10/12 02:07:52;;;;;;;29.70;15.67;;;;;;;15.85;68.34;98102.13;5028807;28;20449;-75
2022/10/12 02:10:25;;;;;;;25.23;13.73;;;;;;;15.81;68.21;98105.06;5020134;28;20423;-75
2022/10/12 02:12:51;;;;;;;20.50;13.63;;;;;;;15.77;67.77;98103.72;5030416;28;20446;-74
2022/10/12 02:15:17;;;;;;;24.43;14.47;;;;;;;15.67;67.95;98103.03;5037520;28;20785;-74
2022/10/12 02:17:45;;;;;;;23.13;14.00;;;;;;;15.71;67.77;98101.75;5028926;28;20479;-72
2022/10/12 02:20:13;;;;;;;19.90;12.37;;;;;;;15.71;67.59;98095.63;5030975;28;20748;-75
2022/10/12 02:22:40;;;;;;;21.33;13.87;;;;;;;15.68;67.75;98099.41;5036272;28;20466;-74
2022/10/12 02:25:09;;;;;;;29.87;14.30;;;;;;;15.69;67.62;98095.78;5012689;28;20438;-73
2022/10/12 02:27:39;;;;;;;24.00;13.93;;;;;;;15.62;67.67;98089.50;5032117;28;20418;-74
2022/10/12 02:30:05;;;;;;;22.40;14.33;;;;;;;15.60;67.61;98089.66;5033209;28;20415;-73
2022/10/12 02:32:42;;;;;;;21.77;14.40;;;;;;;15.59;67.64;98084.56;5030658;28;20430;-75
2022/10/12 02:35:28;;;;;;;21.90;13.73;;;;;;;15.55;67.72;98084.06;5029145;28;20507;-74
2022/10/12 02:38:16;;;;;;;24.60;14.20;;;;;;;15.52;67.65;98087.81;5028845;28;20422;-73
2022/10/12 02:40:46;;;;;;;16.93;12.53;;;;;;;15.49;67.72;98092.63;5029613;28;20979;-74
2022/10/12 02:43:30;;;;;;;22.00;13.67;;;;;;;15.48;67.57;98089.16;5030336;28;20508;-74
2022/10/12 02:45:56;;;;;;;23.97;13.73;;;;;;;15.44;67.70;98093.09;5034058;28;20418;-74
2022/10/12 02:48:23;;;;;;;18.80;14.40;;;;;;;15.43;67.60;98095.91;5031808;28;20529;-74
2022/10/12 02:50:51;;;;;;;20.90;13.20;;;;;;;15.46;67.61;98090.28;5032743;28;20913;-74
2022/10/12 02:53:17;;;;;;;26.30;13.70;;;;;;;15.35;67.24;98091.44;5032897;28;20449;-74
2022/10/12 02:55:51;;;;;;;16.23;12.60;;;;;;;15.32;67.41;98089.13;5029390;28;20442;-74
2022/10/12 02:58:16;;;;;;;14.90;12.77;;;;;;;15.33;67.36;98088.13;5031860;28;20196;-74
2022/10/12 03:00:42;;;;;;;16.90;13.47;;;;;;;15.29;67.34;98090.28;5032815;28;20472;-75
2022/10/12 03:03:07;;;;;;;25.93;14.60;;;;;;;15.24;67.56;98087.28;5033369;28;20291;-73
2022/10/12 03:05:33;;;;;;;20.17;12.80;;;;;;;15.25;67.89;98088.13;5034651;28;20184;-74
2022/10/12 03:07:58;;;;;;;23.57;14.77;;;;;;;15.12;67.97;98088.56;5033341;28;20215;-73
2022/10/12 03:10:24;;;;;;;21.40;14.13;;;;;;;15.16;68.26;98089.91;5027552;28;20215;-73
2022/10/12 03:12:49;;;;;;;19.57;15.10;;;;;;;15.17;68.15;98092.38;5033695;28;20208;-74
2022/10/12 03:15:15;;;;;;;20.60;14.03;;;;;;;15.20;68.34;98091.22;5016575;28;20337;-74
2022/10/12 03:17:40;;;;;;;21.70;15.07;;;;;;;15.27;68.24;98099.31;5036020;28;20533;-74
2022/10/12 03:20:06;;;;;;;20.90;13.53;;;;;;;15.27;68.10;98091.41;5051893;28;20203;-74
2022/10/12 03:22:31;;;;;;;17.73;13.63;;;;;;;15.28;68.14;98093.06;5045400;28;20265;-74
2022/10/12 03:24:59;;;;;;;18.50;14.70;;;;;;;15.29;68.22;98092.06;5016986;28;20184;-73
2022/10/12 03:27:25;;;;;;;25.70;14.63;;;;;;;15.30;68.20;98093.72;5012828;28;20667;-74
2022/10/12 03:29:50;;;;;;;22.13;14.90;;;;;;;15.28;68.23;98090.41;5014607;28;20412;-73
2022/10/12 03:32:15;;;;;;;17.60;13.67;;;;;;;15.31;68.39;98087.47;5029856;28;20438;-73
2022/10/12 03:34:41;;;;;;;16.50;13.10;;;;;;;15.33;68.46;98094.22;5033806;28;20211;-73
2022/10/12 03:37:06;;;;;;;21.80;14.40;;;;;;;15.32;68.32;98089.13;5032569;28;20878;-72
2022/10/12 03:39:32;;;;;;;20.20;13.63;;;;;;;15.36;68.27;98096.53;5031691;28;20673;-74
2022/10/12 03:41:57;;;;;;;23.43;14.00;;;;;;;15.39;68.13;98084.81;5033953;28;20211;-73
2022/10/12 03:44:23;;;;;;;20.63;13.43;;;;;;;15.42;68.23;98087.16;5033651;28;20223;-73
2022/10/12 03:46:48;;;;;;;24.43;13.83;;;;;;;15.43;68.09;98096.72;5037941;28;20186;-74
2022/10/12 03:49:14;;;;;;;25.00;14.07;;;;;;;15.41;68.42;98082.03;5042583;28;20654;-74
2022/10/12 03:51:39;;;;;;;18.57;14.10;;;;;;;15.42;67.99;98088.97;5053048;28;20183;-74
2022/10/12 03:54:04;;;;;;;16.23;13.20;;;;;;;15.45;68.20;98093.91;5051148;28;20214;-72
2022/10/12 03:56:30;;;;;;;19.27;13.80;;;;;;;15.47;68.10;98091.94;5049242;28;20207;-74
2022/10/12 03:58:55;;;;;;;21.13;12.90;;;;;;;15.46;68.25;98091.13;5047592;28;20226;-72
2022/10/12 04:01:21;;;;;;;23.97;12.97;;;;;;;15.44;68.21;98090.47;5052576;28;20237;-73
2022/10/12 04:03:46;;;;;;;19.07;12.80;;;;;;;15.45;68.47;98089.47;5052688;28;20705;-73
2022/10/12 04:06:12;;;;;;;17.60;13.10;;;;;;;15.48;68.30;98088.31;5033940;28;20229;-73
2022/10/12 04:08:37;;;;;;;18.57;12.50;;;;;;;15.51;68.41;98083.53;5043666;28;20215;-74
2022/10/12 04:11:03;;;;;;;18.20;13.20;;;;;;;15.50;68.33;98087.16;5048846;28;20183;-73
2022/10/12 04:13:28;;;;;;;22.23;13.00;;;;;;;15.54;68.30;98086.84;5052065;28;20199;-72
2022/10/12 04:15:54;;;;;;;14.03;12.57;;;;;;;15.49;68.23;98090.81;5036798;28;20267;-74
2022/10/12 04:18:19;;;;;;;17.90;11.83;;;;;;;15.47;68.42;98092.78;5048421;28;20237;-75
2022/10/12 04:20:48;;;;;;;18.83;13.13;;;;;;;15.39;68.27;98090.09;5046956;28;20282;-74
2022/10/12 04:23:13;;;;;;;16.73;11.57;;;;;;;15.42;68.42;98089.78;5048416;28;20732;-73
2022/10/12 04:25:39;;;;;;;13.87;11.60;;;;;;;15.46;68.45;98088.50;5032638;28;20434;-74
2022/10/12 04:28:04;;;;;;;18.63;12.50;;;;;;;15.49;68.33;98096.09;5039580;28;20584;-74
2022/10/12 04:30:31;;;;;;;17.07;12.70;;;;;;;15.48;68.32;98096.25;5044684;28;20595;-74
2022/10/12 04:32:57;;;;;;;14.80;11.70;;;;;;;15.51;68.36;98099.38;5041457;28;20211;-73
2022/10/12 04:35:22;;;;;;;18.03;12.50;;;;;;;15.54;68.34;98097.41;5050662;28;20455;-74
2022/10/12 04:37:48;;;;;;;17.00;12.43;;;;;;;15.55;68.43;98097.25;5049293;28;20274;-74
2022/10/12 04:40:13;;;;;;;14.43;12.17;;;;;;;15.54;68.53;98090.31;5050882;28;20556;-74
2022/10/12 04:42:39;;;;;;;14.43;12.73;;;;;;;15.59;68.52;98103.03;5037239;28;20300;-75
2022/10/12 04:45:05;;;;;;;15.50;12.23;;;;;;;15.60;68.54;98107.34;5045235;28;20329;-73
2022/10/12 04:47:32;;;;;;;24.57;12.23;;;;;;;15.58;68.60;98104.03;5035946;28;20188;-74
2022/10/12 04:49:58;;;;;;;22.40;12.10;;;;;;;15.59;68.78;98105.69;5037544;28;20230;-74
2022/10/12 04:52:23;;;;;;;13.90;11.70;;;;;;;15.60;68.75;98096.78;5050512;28;20477;-73
2022/10/12 04:54:49;;;;;;;16.20;12.37;;;;;;;15.63;68.87;98101.72;5050868;28;20187;-74
2022/10/12 04:57:14;;;;;;;13.73;12.10;;;;;;;15.64;68.87;98104.22;5036135;28;20221;-73
2022/10/12 04:59:39;;;;;;;17.47;11.70;;;;;;;15.64;68.98;98103.38;5051654;28;20211;-74
2022/10/12 05:02:05;;;;;;;17.20;11.83;;;;;;;15.63;69.01;98107.00;5051405;28;20258;-73
2022/10/12 05:04:30;;;;;;;14.70;11.47;;;;;;;15.63;69.06;98109.63;5042018;28;20284;-73
2022/10/12 05:06:56;;;;;;;18.57;12.70;;;;;;;15.64;69.48;98111.28;5045895;28;20214;-74
2022/10/12 05:09:21;;;;;;;22.53;12.53;;;;;;;15.58;69.32;98114.59;5050788;28;20237;-74
2022/10/12 05:11:47;;;;;;;15.07;12.00;;;;;;;15.59;69.39;98110.97;5051306;28;20241;-74
2022/10/12 05:14:12;;;;;;;16.03;12.70;;;;;;;15.62;69.42;98110.66;5035000;28;20203;-75
2022/10/12 05:16:37;;;;;;;18.70;12.40;;;;;;;15.65;69.44;98110.31;5027320;28;20262;-74
2022/10/12 05:19:03;;;;;;;17.10;12.57;;;;;;;15.68;69.33;98110.00;5051182;28;20695;-74
2022/10/12 05:21:28;;;;;;;18.70;14.80;;;;;;;15.64;69.37;98113.94;5043080;28;20811;-74
2022/10/12 05:23:54;;;;;;;20.77;14.33;;;;;;;15.64;69.51;98104.22;5040178;28;20218;-73
2022/10/12 05:26:20;;;;;;;18.57;13.27;;;;;;;15.66;69.54;98107.53;5049356;28;20709;-75
2022/10/12 05:28:45;;;;;;;18.77;12.83;;;;;;;15.66;69.36;98102.22;5050721;28;20175;-74
2022/10/12 05:31:11;;;;;;;16.80;12.47;;;;;;;15.67;69.11;98110.97;5050283;28;20183;-74
2022/10/12 05:33:36;;;;;;;18.40;12.63;;;;;;;15.67;69.34;98113.63;5050506;28;20202;-75
2022/10/12 05:36:02;;;;;;;21.10;13.00;;;;;;;15.69;69.50;98105.53;5051576;28;20179;-75
2022/10/12 05:38:27;;;;;;;16.07;13.10;;;;;;;15.68;69.44;98110.00;5048706;28;20639;-74
2022/10/12 05:40:53;;;;;;;16.27;13.33;;;;;;;15.68;69.47;98096.78;5046383;28;20601;-74
2022/10/12 05:43:18;;;;;;;14.57;11.87;;;;;;;15.66;69.45;98102.22;5048926;28;20203;-73
2022/10/12 05:45:43;;;;;;;17.07;12.23;;;;;;;15.67;69.94;98105.69;5050653;28;20193;-75
2022/10/12 05:48:09;;;;;;;21.13;14.33;;;;;;;15.69;69.63;98103.72;5049797;28;20270;-74
2022/10/12 05:50:34;;;;;;;27.20;13.17;;;;;;;15.69;69.64;98106.34;5050225;28;20615;-73
2022/10/12 05:53:00;;;;;;;20.30;13.50;;;;;;;15.70;69.54;98108.00;5050397;28;20569;-75
2022/10/12 05:55:25;;;;;;;15.13;13.53;;;;;;;15.69;69.45;98111.66;5035524;28;20175;-75
2022/10/12 05:57:51;;;;;;;20.57;13.57;;;;;;;15.74;69.82;98113.78;5048910;28;20233;-75
2022/10/12 06:00:17;;;;;;;16.70;13.03;;;;;;;15.75;69.53;98120.72;5049354;28;20234;-74
2022/10/12 06:02:42;;;;;;;19.27;13.30;;;;;;;15.76;69.79;98123.19;5032118;28;20203;-75
2022/10/12 06:05:08;;;;;;;18.20;13.80;;;;;;;15.77;69.92;98118.75;5041509;28;20234;-74
2022/10/12 06:07:33;;;;;;;25.40;14.03;;;;;;;15.80;69.96;98124.53;5050124;28;20240;-74
2022/10/12 06:09:59;;;;;;;22.00;13.17;;;;;;;15.80;69.87;98123.72;5041459;28;20202;-73
2022/10/12 06:12:25;;;;;;;23.80;13.60;;;;;;;15.81;70.05;98120.91;5050459;28;20214;-74
2022/10/12 06:14:51;;;;;;;19.60;13.33;;;;;;;15.85;70.13;98120.63;5050719;28;20190;-73
2022/10/12 06:17:17;;;;;;;17.60;13.00;;;;;;;15.82;70.12;98116.44;5049951;28;20425;-72
2022/10/12 06:19:42;;;;;;;15.10;12.10;;;;;;;15.83;70.01;98118.09;5045168;28;20436;-74
2022/10/12 06:22:08;;;;;;;16.37;13.07;;;;;;;15.85;70.06;98120.63;5039704;28;20210;-73
2022/10/12 06:24:33;;;;;;;18.67;12.90;;;;;;;15.85;70.19;98120.63;5042795;28;20199;-75
2022/10/12 06:26:58;;;;;;;18.80;14.40;;;;;;;15.86;70.16;98123.09;5049683;28;20262;-74
2022/10/12 06:29:24;;;;;;;21.37;15.30;;;;;;;15.95;70.24;98126.56;5049133;28;20183;-76
2022/10/12 06:31:50;;;;;;;27.73;16.73;;;;;;;16.01;70.46;98127.72;5050823;28;20210;-75
2022/10/12 06:34:16;;;;;;;32.20;15.83;;;;;;;16.06;70.76;98131.53;5049263;28;20230;-73
2022/10/12 06:36:41;;;;;;;21.10;15.60;;;;;;;16.12;70.44;98130.88;5050348;28;20198;-75
2022/10/12 06:39:08;;;;;;;19.80;15.43;;;;;;;16.18;70.54;98136.50;5040769;28;20186;-73
2022/10/12 06:41:33;;;;;;;33.37;17.90;;;;;;;16.20;70.54;98129.22;5036101;28;20218;-75
2022/10/12 06:43:59;;;;;;;21.93;15.80;;;;;;;16.24;70.41;98135.84;5046039;28;20441;-74
2022/10/12 06:46:27;;;;;;;30.10;15.50;;;;;;;16.28;70.34;98129.22;5048934;28;20202;-74
2022/10/12 06:48:53;;;;;;;25.10;15.03;;;;;;;16.35;70.35;98135.50;5050356;28;20179;-75
2022/10/12 06:51:19;;;;;;;36.23;16.37;;;;;;;16.37;70.38;98136.16;5050615;28;20568;-75
2022/10/12 06:53:44;;;;;;;30.00;17.57;;;;;;;16.40;70.15;98138.44;5036903;28;20202;-75
2022/10/12 06:56:10;;;;;;;35.47;18.53;;;;;;;16.43;70.09;98139.97;5039728;28;20190;-74
2022/10/12 06:58:36;;;;;;;26.53;17.80;;;;;;;16.46;70.00;98149.38;5049914;28;20672;-75
2022/10/12 07:01:06;;;;;;;32.67;18.73;;;;;;;16.49;69.98;98133.19;5050538;28;20492;-75
2022/10/12 07:03:31;;;;;;;28.57;19.00;;;;;;;16.52;69.70;98135.47;5034172;28;20253;-73
2022/10/12 07:06:10;;;;;;;25.40;17.63;;;;;;;16.53;69.76;98134.47;5050242;28;20488;-74
2022/10/12 07:08:36;;;;;;;25.53;16.13;;;;;;;16.56;69.67;98142.09;5045428;28;20184;-76
2022/10/12 07:11:06;;;;;;;34.80;16.50;;;;;;;16.56;69.51;98132.34;5046897;28;20417;-75
2022/10/12 07:13:32;;;;;;;30.23;17.80;;;;;;;16.57;69.64;98141.91;5050014;28;20232;-75
2022/10/12 07:15:57;;;;;;;23.57;15.17;;;;;;;16.61;69.71;98141.56;5050037;28;20421;-76
2022/10/12 07:18:23;;;;;;;27.30;16.50;;;;;;;16.63;69.75;98140.44;5043721;28;20186;-75
2022/10/12 07:20:49;;;;;;;29.53;18.70;;;;;;;16.65;69.47;98141.06;5034616;28;20229;-75
2022/10/12 07:23:15;;;;;;;20.67;14.83;;;;;;;16.66;69.52;98144.56;5047274;28;20199;-74
2022/10/12 07:25:46;;;;;;;23.10;15.57;;;;;;;16.68;69.54;98139.94;5042536;28;20252;-75
2022/10/12 07:28:12;;;;;;;23.13;15.30;;;;;;;16.71;69.71;98140.41;5047717;28;20234;-74
2022/10/12 07:30:37;;;;;;;33.27;16.20;;;;;;;16.74;69.79;98141.88;5052521;28;20968;-75
2022/10/12 07:33:03;;;;;;;25.50;17.73;;;;;;;16.74;69.39;98134.78;5059873;28;20286;-74
2022/10/12 07:35:28;;;;;;;28.73;18.20;;;;;;;16.73;69.35;98135.78;5053476;28;20186;-75
2022/10/12 07:37:53;;;;;;;22.43;17.40;;;;;;;16.73;69.44;98138.41;5050403;28;20183;-75
2022/10/12 07:40:19;;;;;;;25.00;15.37;;;;;;;16.76;69.76;98128.50;5052540;28;20207;-74
2022/10/12 07:42:44;;;;;;;32.30;17.20;;;;;;;16.81;69.52;98142.03;5047072;28;20210;-75
2022/10/12 07:45:10;;;;;;;28.80;18.40;;;;;;;16.83;69.47;98134.75;5052849;28;20602;-75
2022/10/12 07:47:35;;;;;;;27.37;17.77;;;;;;;16.86;69.29;98135.22;5052569;28;20551;-75
2022/10/12 07:50:01;;;;;;;25.17;16.60;;;;;;;16.91;69.51;98137.38;5053687;28;20213;-74
2022/10/12 07:52:27;;;;;;;27.00;17.77;;;;;;;16.94;69.25;98137.06;5053156;28;20206;-74
2022/10/12 07:54:52;;;;;;;27.90;18.40;;;;;;;16.96;69.62;98140.38;5043975;28;20241;-75
2022/10/12 07:57:18;;;;;;;28.17;17.70;;;;;;;16.97;69.27;98139.38;5040817;28;20419;-74
2022/10/12 07:59:43;;;;;;;30.10;19.13;;;;;;;17.01;69.18;98142.50;5052713;28;20720;-76
2022/10/12 08:02:10;;;;;;;25.80;19.73;;;;;;;17.04;69.07;98135.03;5053025;28;20201;-75
2022/10/12 08:04:36;;;;;;;34.67;20.60;;;;;;;17.10;69.22;98135.38;5051203;28;20199;-74
2022/10/12 08:07:01;;;;;;;31.50;19.43;;;;;;;17.13;69.12;98140.31;5052521;28;20512;-72
2022/10/12 08:09:26;;;;;;;30.93;19.77;;;;;;;17.17;69.21;98141.63;5049637;28;20186;-75
2022/10/12 08:11:52;;;;;;;32.73;20.70;;;;;;;17.19;68.96;98140.47;5048049;28;20206;-74
2022/10/12 08:14:17;;;;;;;36.23;20.90;;;;;;;17.21;69.01;98137.63;5052347;28;20206;-75
2022/10/12 08:16:43;;;;;;;33.20;20.50;;;;;;;17.22;68.80;98149.88;5051134;28;20191;-74
2022/10/12 08:19:09;;;;;;;33.80;20.37;;;;;;;17.17;68.21;98152.22;5052676;28;20187;-75
2022/10/12 08:21:34;;;;;;;28.37;20.07;;;;;;;17.17;68.35;98155.69;5044841;28;20311;-73
2022/10/12 08:24:00;;;;;;;31.43;20.27;;;;;;;17.19;67.86;98152.88;5045148;28;20207;-74
2022/10/12 08:26:26;;;;;;;35.20;21.43;;;;;;;17.12;67.51;98151.91;5033511;28;20202;-74
2022/10/12 08:28:51;;;;;;;30.37;20.17;;;;;;;17.18;67.64;98146.75;5018251;28;20274;-74
2022/10/12 08:31:17;;;;;;;28.93;19.77;;;;;;;17.16;67.32;98145.25;5018139;28;20532;-74
2022/10/12 08:33:43;;;;;;;33.33;19.70;;;;;;;17.15;67.03;98146.25;5033592;28;20294;-75
2022/10/12 08:36:10;;;;;;;27.63;19.13;;;;;;;17.18;66.83;98140.63;5051650;28;20194;-74
2022/10/12 08:38:37;;;;;;;26.87;18.97;;;;;;;17.22;66.54;98147.22;5049389;28;20229;-73
2022/10/12 08:41:17;;;;;;;28.00;17.53;;;;;;;17.20;66.75;98151.88;5047655;28;20461;-74
2022/10/12 08:44:06;;;;;;;43.27;20.57;;;;;;;17.22;66.49;98147.22;5045488;28;20446;-75
2022/10/12 08:46:31;;;;;;;27.60;18.70;;;;;;;17.32;66.56;98145.19;5043611;28;20422;-75
2022/10/12 08:48:57;;;;;;;31.60;19.97;;;;;;;17.26;66.16;98145.06;5046678;28;20466;-75
2022/10/12 08:51:25;;;;;;;32.07;19.53;;;;;;;17.32;66.22;98147.84;5049920;28;20194;-74
2022/10/12 08:53:56;;;;;;;26.80;18.23;;;;;;;17.40;66.23;98151.44;5039920;28;20258;-74
2022/10/12 08:56:22;;;;;;;23.97;18.00;;;;;;;17.40;65.90;98146.97;5048448;28;20886;-75
2022/10/12 08:58:49;;;;;;;27.87;18.53;;;;;;;17.46;66.12;98140.16;5051730;28;20520;-74
2022/10/12 09:01:28;;;;;;;24.47;16.90;;;;;;;17.39;64.68;98136.56;5050558;28;20678;-75
2022/10/12 09:04:17;;;;;;;28.53;16.40;;;;;;;17.45;64.53;98138.50;5050578;28;20449;-75
2022/10/12 09:06:46;;;;;;;30.40;17.00;;;;;;;17.55;64.40;98133.81;5049882;28;20904;-74
2022/10/12 09:09:53;;;;;;;31.27;17.03;;;;;;;17.57;64.22;98137.13;5049246;28;20429;-76
2022/10/12 09:12:28;;;;;;;24.37;16.13;;;;;;;17.60;64.14;98134.13;5050375;28;20425;-75
2022/10/12 09:14:59;;;;;;;23.70;18.00;;;;;;;17.68;64.29;98135.06;5050792;28;20417;-74
2022/10/12 09:17:40;;;;;;;28.20;18.40;;;;;;;17.71;64.71;98129.44;5049785;28;20457;-76
2022/10/12 09:20:34;;;;;;;25.63;15.27;;;;;;;17.59;63.50;98142.22;5045130;28;20507;-74
2022/10/12 09:23:26;;;;;;;26.43;14.23;;;;;;;17.56;62.63;98134.66;5042634;28;20947;-75
2022/10/12 09:26:15;;;;;;;25.27;15.00;;;;;;;17.58;62.69;98144.06;5042820;28;20440;-76
2022/10/12 09:28:53;;;;;;;26.97;15.10;;;;;;;17.55;62.62;98144.41;5050271;28;20429;-74
2022/10/12 09:31:27;;;;;;;22.57;14.60;;;;;;;17.53;62.13;98145.59;5051069;28;20784;-72
2022/10/12 09:34:01;;;;;;;20.60;14.50;;;;;;;17.58;62.48;98152.03;5033613;28;21019;-75
2022/10/12 09:36:32;;;;;;;23.80;14.30;;;;;;;17.61;62.29;98149.03;5047826;28;20429;-75
2022/10/12 09:38:59;;;;;;;24.33;14.70;;;;;;;17.63;62.32;98155.00;5047220;28;20964;-75
2022/10/12 09:41:30;;;;;;;29.30;14.93;;;;;;;17.54;62.67;98152.56;5011726;28;20534;-75
2022/10/12 09:43:58;;;;;;;23.23;15.10;;;;;;;17.63;62.56;98157.66;5045714;28;21049;-75
2022/10/12 09:46:34;;;;;;;24.23;16.20;;;;;;;17.66;62.76;98151.16;5049106;28;20438;-75
2022/10/12 09:49:00;;;;;;;27.73;15.00;;;;;;;17.70;62.64;98157.78;5048776;28;20429;-75
2022/10/12 09:51:27;;;;;;;24.83;14.30;;;;;;;17.75;62.70;98159.91;5048265;28;20418;-75
2022/10/12 09:53:53;;;;;;;24.33;14.53;;;;;;;17.79;62.74;98156.72;5038565;28;20713;-74
2022/10/12 09:56:25;;;;;;;21.40;14.23;;;;;;;17.86;62.84;98159.50;5047763;28;20901;-74
2022/10/12 09:58:53;;;;;;;22.40;14.87;;;;;;;17.80;62.49;98153.06;5050232;28;20429;-74
2022/10/12 10:01:22;;;;;;;25.17;14.47;;;;;;;17.80;62.39;98152.22;5037535;28;20973;-74
2022/10/12 10:03:53;;;;;;;32.13;16.90;;;;;;;17.77;62.21;98152.56;5049266;28;20527;-75
2022/10/12 10:06:23;;;;;;;27.27;15.10;;;;;;;17.81;62.35;98157.38;5040430;28;20445;-72
2022/10/12 10:08:49;;;;;;;27.37;14.90;;;;;;;17.87;62.19;98155.00;5040972;28;20437;-75
2022/10/12 10:11:19;;;;;;;27.10;16.00;;;;;;;17.92;62.13;98164.06;5032845;28;20433;-74
2022/10/12 10:13:47;;;;;;;21.63;14.57;;;;;;;17.93;61.92;98160.41;5049744;28;20207;-75
2022/10/12 10:16:13;;;;;;;26.90;15.67;;;;;;;17.98;61.82;98159.09;5050570;28;20425;-74
2022/10/12 10:18:46;;;;;;;20.10;14.23;;;;;;;17.94;62.04;98153.31;5049029;28;20509;-75
2022/10/12 10:21:13;;;;;;;22.60;13.80;;;;;;;17.96;62.16;98156.59;5041294;28;20199;-74
2022/10/12 10:23:51;;;;;;;26.53;15.40;;;;;;;17.94;61.99;98148.81;5045073;28;20504;-73
2022/10/12 10:26:18;;;;;;;20.67;14.27;;;;;;;18.04;61.92;98150.44;5045160;28;20512;-73
2022/10/12 10:28:45;;;;;;;24.07;15.20;;;;;;;18.10;61.75;98145.25;5044352;28;20417;-75
2022/10/12 10:31:20;;;;;;;24.50;15.27;;;;;;;18.03;61.67;98144.31;5050313;28;20453;-75
2022/10/12 10:34:03;;;;;;;18.73;13.90;;;;;;;18.02;61.79;98145.31;5050455;28;20448;-75
2022/10/12 10:36:28;;;;;;;21.67;13.93;;;;;;;18.16;61.67;98145.53;5049460;28;20780;-72
2022/10/12 10:39:04;;;;;;;101.83;57.13;;;;;;;18.25;61.80;98153.28;5043227;28;20438;-75
2022/10/12 10:41:38;;;;;;;20.30;13.33;;;;;;;18.25;60.85;98150.63;5043941;28;20924;-74
2022/10/12 10:44:04;;;;;;;21.73;13.03;;;;;;;18.32;60.09;98148.06;5042607;28;20481;-75
2022/10/12 10:46:32;;;;;;;16.83;11.43;;;;;;;18.42;60.21;98145.16;5049955;28;20933;-74
2022/10/12 10:49:05;;;;;;;22.03;12.17;;;;;;;18.48;59.83;98149.75;5050882;28;20464;-74
2022/10/12 10:51:38;;;;;;;29.23;13.00;;;;;;;18.45;59.22;98144.78;5033881;28;20503;-74
2022/10/12 10:54:22;;;;;;;20.60;11.73;;;;;;;18.54;59.11;98146.34;5042809;28;20445;-74
2022/10/12 10:57:14;;;;;;;25.07;12.17;;;;;;;18.64;58.98;98143.44;5049714;28;20445;-74
2022/10/12 10:59:46;;;;;;;25.73;13.63;;;;;;;18.66;58.04;98140.59;5038349;28;20433;-75
2022/10/12 11:02:18;;;;;;;19.47;12.80;;;;;;;18.75;58.37;98134.22;5048506;28;20493;-75
2022/10/12 11:04:49;;;;;;;20.07;11.37;;;;;;;18.81;58.39;98138.78;5050619;28;20438;-75
2022/10/12 11:07:32;;;;;;;23.30;12.70;;;;;;;18.57;57.95;98153.97;5051946;28;20425;-74
2022/10/12 11:10:01;;;;;;;15.37;11.33;;;;;;;18.77;58.39;98145.50;5036964;28;20432;-75
2022/10/12 11:12:33;;;;;;;19.17;11.63;;;;;;;18.84;58.58;98138.44;5053993;28;20433;-75
2022/10/12 11:15:07;;;;;;;18.53;11.63;;;;;;;18.92;58.37;98148.16;5054025;28;20793;-74
2022/10/12 11:17:37;;;;;;;18.33;10.60;;;;;;;18.98;58.04;98143.97;5057008;28;20456;-74
2022/10/12 11:20:24;;;;;;;18.27;11.53;;;;;;;18.92;57.45;98131.38;5041578;28;20421;-75
2022/10/12 11:22:52;;;;;;;23.33;11.80;;;;;;;18.94;57.31;98134.72;5041484;28;20470;-75
2022/10/12 11:25:23;;;;;;;19.67;11.33;;;;;;;18.98;57.11;98138.66;5044648;28;20517;-72